Time;durP1;ratioP1;P1;durP2;ratioP2;P2;SDS_P1;SDS_P2;PMS_P1;PMS_P2;Temp;Humidity;BMP_temperature;BMP_pressure;BME280_temperature;BME280_humidity;BME280_pressure;Samples;Min_cycle;Max_cycle;Signal;HPM_P1;HPM_P2
2021/05/24 00:01:14;;;;;;;4.15;3.50;;;9.20;99.90;;;;;;5003321;28;20192;-82
2021/05/24 00:03:41;;;;;;;4.25;3.03;;;9.20;99.90;;;;;;5039651;28;20253;-84
2021/05/24 00:06:08;;;;;;;6.82;3.50;;;9.10;99.90;;;;;;5039638;28;20314;-83
2021/05/24 00:08:35;;;;;;;5.85;3.60;;;9.20;99.90;;;;;;5038833;28;20319;-83
2021/05/24 00:11:03;;;;;;;3.70;3.40;;;9.40;99.90;;;;;;5056142;28;20207;-83
2021/05/24 00:13:30;;;;;;;5.85;3.58;;;9.40;99.90;;;;;;5062045;28;20568;-84
2021/05/24 00:15:58;;;;;;;5.65;3.90;;;9.30;99.90;;;;;;5060667;28;20183;-83
2021/05/24 00:18:25;;;;;;;6.20;3.70;;;9.20;99.90;;;;;;5042063;28;20301;-83
2021/05/24 00:20:55;;;;;;;6.22;3.53;;;9.00;99.90;;;;;;5040693;28;20279;-83
2021/05/24 00:23:22;;;;;;;3.95;3.63;;;8.70;99.90;;;;;;5045009;28;20245;-83
2021/05/24 00:25:49;;;;;;;6.18;4.25;;;8.50;99.90;;;;;;5038546;28;20239;-84
2021/05/24 00:28:17;;;;;;;4.50;3.20;;;8.30;99.90;;;;;;5038457;28;20246;-83
2021/05/24 00:30:45;;;;;;;4.03;3.70;;;8.10;99.90;;;;;;5020314;28;20200;-82
2021/05/24 00:33:12;;;;;;;5.40;3.33;;;8.00;99.90;;;;;;5038956;28;20199;-83
2021/05/24 00:35:41;;;;;;;9.32;3.85;;;8.00;99.90;;;;;;5020664;28;20271;-82
2021/05/24 00:38:28;;;;;;;3.25;2.95;;;8.00;99.90;;;;;;5024204;28;20226;-81
2021/05/24 00:40:55;;;;;;;7.03;4.18;;;8.00;99.90;;;;;;5037217;28;20246;-83
2021/05/24 00:43:22;;;;;;;5.20;3.67;;;8.00;99.90;;;;;;5021397;28;20210;-83
2021/05/24 00:45:49;;;;;;;3.63;3.33;;;8.20;99.90;;;;;;5038466;28;20250;-83
2021/05/24 00:48:16;;;;;;;3.70;2.95;;;8.30;99.90;;;;;;5021566;28;20223;-83
2021/05/24 00:50:43;;;;;;;5.20;3.58;;;8.40;99.90;;;;;;5021021;28;20229;-82
2021/05/24 00:53:10;;;;;;;8.38;3.00;;;8.50;99.90;;;;;;5039348;28;20192;-82
2021/05/24 00:55:37;;;;;;;3.08;2.78;;;8.50;99.90;;;;;;5035722;28;20198;-84
2021/05/24 00:58:05;;;;;;;3.80;2.85;;;8.50;99.90;;;;;;5054708;28;20190;-83
2021/05/24 01:00:37;;;;;;;4.43;2.95;;;8.40;99.90;;;;;;5043211;28;20189;-83
2021/05/24 01:03:05;;;;;;;3.45;3.13;;;8.40;99.90;;;;;;5076853;28;20194;-83
2021/05/24 01:05:32;;;;;;;4.72;2.83;;;8.40;99.90;;;;;;5066414;28;20172;-84
2021/05/24 01:07:59;;;;;;;3.40;3.10;;;8.40;99.90;;;;;;5042673;28;20337;-83
2021/05/24 01:10:26;;;;;;;3.05;2.60;;;8.50;99.90;;;;;;5023079;28;20577;-83
2021/05/24 01:13:04;;;;;;;3.58;3.28;;;8.50;99.90;;;;;;5026432;28;20218;-82
2021/05/24 01:15:31;;;;;;;3.47;3.17;;;8.50;99.90;;;;;;5055445;28;20203;-82
2021/05/24 01:17:59;;;;;;;2.67;2.47;;;8.60;99.90;;;;;;5020417;28;20687;-82
2021/05/24 01:20:28;;;;;;;4.28;3.03;;;8.60;99.90;;;;;;5070756;22;20310;-78
2021/05/24 01:23:06;;;;;;;4.93;3.10;;;8.60;99.90;;;;;;5084785;28;20395;-79
2021/05/24 01:25:35;;;;;;;2.75;2.35;;;8.60;99.90;;;;;;5052258;28;20219;-79
2021/05/24 01:28:03;;;;;;;5.65;2.88;;;8.70;99.90;;;;;;5047481;28;20196;-78
2021/05/24 01:30:32;;;;;;;2.65;2.38;;;8.80;99.90;;;;;;5047511;28;20238;-79
2021/05/24 01:32:58;;;;;;;3.78;3.47;;;8.80;99.90;;;;;;5048091;28;20294;-78
2021/05/24 01:35:25;;;;;;;3.13;2.83;;;8.70;99.90;;;;;;5047819;28;20204;-78
2021/05/24 01:37:52;;;;;;;5.07;2.92;;;8.70;99.90;;;;;;5047113;28;20565;-80
2021/05/24 01:40:22;;;;;;;3.42;2.30;;;8.70;99.90;;;;;;5030921;28;20220;-79
2021/05/24 01:42:53;;;;;;;3.88;2.83;;;8.70;99.90;;;;;;5046972;28;20215;-79
2021/05/24 01:45:20;;;;;;;10.40;3.08;;;8.80;99.90;;;;;;5045402;28;20200;-79
2021/05/24 01:47:47;;;;;;;2.88;2.67;;;8.80;99.90;;;;;;5067030;28;20558;-79
2021/05/24 01:50:15;;;;;;;2.28;2.10;;;8.70;99.90;;;;;;5067262;28;20218;-79
2021/05/24 01:52:42;;;;;;;6.57;2.95;;;8.70;99.90;;;;;;5070558;28;20582;-78
2021/05/24 01:55:10;;;;;;;3.53;2.78;;;8.60;99.90;;;;;;5072146;28;20225;-79
2021/05/24 01:57:39;;;;;;;4.50;3.15;;;8.70;99.90;;;;;;5072977;28;20198;-79
2021/05/24 02:00:10;;;;;;;4.10;2.72;;;8.70;99.90;;;;;;5070612;28;20267;-79
2021/05/24 02:02:44;;;;;;;2.80;2.60;;;8.70;99.90;;;;;;5071644;28;20223;-79
2021/05/24 02:05:13;;;;;;;3.33;3.03;;;8.70;99.90;;;;;;5070116;28;20205;-78
2021/05/24 02:07:40;;;;;;;3.40;2.47;;;8.70;99.90;;;;;;5069191;28;20237;-78
2021/05/24 02:10:10;;;;;;;4.18;2.63;;;8.50;99.90;;;;;;5063614;28;20231;-78
2021/05/24 02:12:36;;;;;;;3.50;3.08;;;8.60;99.90;;;;;;5047948;28;20286;-78
2021/05/24 02:15:05;;;;;;;2.53;2.15;;;8.70;99.90;;;;;;5048195;28;20203;-79
2021/05/24 02:17:32;;;;;;;2.75;2.13;;;8.80;99.90;;;;;;5060703;28;20218;-78
2021/05/24 02:19:59;;;;;;;2.72;2.17;;;8.70;99.90;;;;;;5068442;28;20230;-79
2021/05/24 02:22:26;;;;;;;6.13;2.50;;;8.70;99.90;;;;;;5066866;28;20195;-79
2021/05/24 02:24:53;;;;;;;3.28;2.15;;;8.80;99.90;;;;;;5048508;28;20574;-78
2021/05/24 02:27:19;;;;;;;2.60;2.40;;;8.90;99.90;;;;;;5045817;28;20262;-79
2021/05/24 02:29:46;;;;;;;5.28;2.60;;;8.90;99.90;;;;;;5054428;28;20219;-78
2021/05/24 02:32:13;;;;;;;2.67;2.45;;;8.90;99.90;;;;;;5067551;28;20672;-79
2021/05/24 02:34:40;;;;;;;3.85;2.90;;;8.70;99.90;;;;;;5066284;28;20203;-79
2021/05/24 02:37:07;;;;;;;4.00;2.83;;;8.60;99.90;;;;;;5065925;28;20195;-79
2021/05/24 02:39:34;;;;;;;2.35;2.15;;;8.60;99.90;;;;;;5064704;28;20249;-78
2021/05/24 02:42:01;;;;;;;3.42;2.22;;;8.70;99.90;;;;;;5065524;28;20191;-79
2021/05/24 02:44:27;;;;;;;1.88;1.77;;;8.60;99.90;;;;;;5063236;28;20218;-78
2021/05/24 02:46:54;;;;;;;2.85;1.70;;;8.70;99.90;;;;;;5065334;28;20224;-79
2021/05/24 02:49:21;;;;;;;2.15;1.95;;;8.70;99.90;;;;;;5066987;28;20236;-79
2021/05/24 02:51:48;;;;;;;2.47;1.80;;;8.60;99.90;;;;;;5066028;28;20695;-79
2021/05/24 02:54:15;;;;;;;4.07;2.00;;;8.60;99.90;;;;;;5067363;28;20557;-77
2021/05/24 02:56:42;;;;;;;3.30;2.00;;;8.70;99.90;;;;;;5046213;28;20565;-78
2021/05/24 02:59:08;;;;;;;3.90;2.47;;;8.70;99.90;;;;;;5046296;28;20224;-79
2021/05/24 03:01:35;;;;;;;2.75;1.80;;;8.80;99.90;;;;;;5044911;28;20245;-78
2021/05/24 03:04:03;;;;;;;2.67;1.92;;;8.90;99.90;;;;;;5055073;28;20734;-79
2021/05/24 03:06:31;;;;;;;1.98;1.75;;;8.90;99.90;;;;;;5053650;28;20216;-78
2021/05/24 03:08:58;;;;;;;1.85;1.65;;;9.00;99.90;;;;;;5068887;28;20282;-79
2021/05/24 03:11:24;;;;;;;4.93;2.00;;;9.00;99.90;;;;;;5069835;28;20195;-79
2021/05/24 03:13:51;;;;;;;2.95;1.80;;;9.10;99.90;;;;;;5070748;28;20215;-79
2021/05/24 03:16:19;;;;;;;2.25;2.13;;;9.00;99.90;;;;;;5069745;28;20201;-79
2021/05/24 03:18:46;;;;;;;3.97;2.10;;;8.90;99.90;;;;;;5065906;28;20249;-79
2021/05/24 03:21:13;;;;;;;3.22;1.48;;;9.00;99.90;;;;;;5085538;28;20344;-79
2021/05/24 03:23:41;;;;;;;2.45;2.00;;;9.00;99.90;;;;;;5068398;28;20270;-80
2021/05/24 03:26:08;;;;;;;2.30;1.48;;;8.90;99.90;;;;;;5070176;28;20236;-80
2021/05/24 03:28:34;;;;;;;6.05;1.85;;;9.00;99.90;;;;;;5068521;28;20206;-79
2021/05/24 03:31:01;;;;;;;2.35;1.70;;;9.00;99.90;;;;;;5070331;28;20195;-80
2021/05/24 03:33:28;;;;;;;4.38;2.00;;;9.10;99.90;;;;;;5070309;28;20216;-79
2021/05/24 03:35:55;;;;;;;2.80;2.33;;;8.90;99.90;;;;;;5069250;28;20191;-79
2021/05/24 03:38:21;;;;;;;2.53;2.22;;;9.00;99.90;;;;;;5069912;28;20199;-80
2021/05/24 03:40:49;;;;;;;2.35;1.80;;;9.00;99.90;;;;;;5069010;28;20249;-79
2021/05/24 03:43:16;;;;;;;4.13;1.92;;;9.00;99.90;;;;;;5068837;28;20201;-79
2021/05/24 03:45:42;;;;;;;1.50;1.35;;;9.00;99.90;;;;;;5067024;28;20201;-79
2021/05/24 03:48:09;;;;;;;3.83;2.08;;;8.90;99.90;;;;;;5050683;28;20222;-78
2021/05/24 03:50:36;;;;;;;1.60;1.50;;;8.90;99.90;;;;;;5068005;28;20286;-78
2021/05/24 03:53:03;;;;;;;1.95;1.65;;;8.80;99.90;;;;;;5068046;28;20203;-80
2021/05/24 03:55:29;;;;;;;2.97;1.98;;;8.90;99.90;;;;;;5067731;28;20751;-79
2021/05/24 03:57:56;;;;;;;1.92;1.83;;;8.90;99.90;;;;;;5049228;28;20222;-80
2021/05/24 04:00:24;;;;;;;2.80;2.15;;;9.00;99.90;;;;;;5063278;28;20223;-79
2021/05/24 04:02:52;;;;;;;1.92;1.70;;;8.90;99.90;;;;;;5062776;28;20206;-78
2021/05/24 04:05:19;;;;;;;3.05;2.35;;;9.00;99.90;;;;;;5049813;28;20275;-77
2021/05/24 04:07:49;;;;;;;2.55;2.05;;;9.10;99.90;;;;;;5050993;28;20231;-78
2021/05/24 04:10:18;;;;;;;2.83;1.67;;;9.00;99.90;;;;;;5045293;28;20263;-79
2021/05/24 04:12:45;;;;;;;2.67;2.10;;;8.90;99.90;;;;;;5044691;28;20196;-78
2021/05/24 04:15:14;;;;;;;3.15;1.90;;;9.00;99.90;;;;;;5044054;28;20195;-78
2021/05/24 04:17:42;;;;;;;3.03;2.03;;;9.00;99.90;;;;;;5040595;28;20200;-79
2021/05/24 04:20:11;;;;;;;3.67;2.15;;;9.10;99.90;;;;;;5048410;28;20585;-79
2021/05/24 04:22:38;;;;;;;2.67;2.28;;;9.00;99.90;;;;;;5060233;28;20628;-78
2021/05/24 04:25:06;;;;;;;2.38;1.45;;;9.10;99.90;;;;;;5075791;28;20266;-78
2021/05/24 04:27:33;;;;;;;3.60;2.20;;;9.10;99.90;;;;;;5061413;28;20219;-78
2021/05/24 04:29:59;;;;;;;4.22;2.72;;;9.10;99.90;;;;;;5058526;28;20214;-78
2021/05/24 04:32:27;;;;;;;2.13;1.65;;;9.10;99.90;;;;;;5060548;28;20200;-79
2021/05/24 04:34:53;;;;;;;3.28;1.90;;;9.10;99.90;;;;;;5062991;28;20218;-79
2021/05/24 04:37:20;;;;;;;1.52;1.42;;;9.20;99.90;;;;;;5049858;28;20281;-79
2021/05/24 04:39:47;;;;;;;1.83;1.73;;;9.20;99.90;;;;;;5044663;28;20229;-79
2021/05/24 04:42:14;;;;;;;3.88;2.00;;;9.50;99.90;;;;;;5042443;28;20204;-80
2021/05/24 04:44:40;;;;;;;1.88;1.77;;;9.50;99.90;;;;;;5044229;28;20195;-78
2021/05/24 04:47:07;;;;;;;4.32;2.13;;;9.60;99.90;;;;;;5045440;28;20247;-78
2021/05/24 04:49:34;;;;;;;2.00;1.73;;;9.80;99.90;;;;;;5043314;28;20223;-78
2021/05/24 04:52:02;;;;;;;1.70;1.58;;;9.80;99.90;;;;;;5048153;28;20685;-80
2021/05/24 04:54:29;;;;;;;4.13;2.13;;;9.90;99.90;;;;;;5062240;28;20207;-80
2021/05/24 04:56:57;;;;;;;3.53;1.92;;;9.90;99.90;;;;;;5061515;28;20218;-78
2021/05/24 04:59:24;;;;;;;2.97;1.85;;;9.90;99.90;;;;;;5056883;28;20652;-78
2021/05/24 05:01:50;;;;;;;3.45;2.28;;;10.00;99.90;;;;;;5055266;28;20197;-78
2021/05/24 05:04:18;;;;;;;3.20;2.03;;;10.00;99.90;;;;;;5056434;28;20195;-78
2021/05/24 05:06:45;;;;;;;2.65;1.95;;;9.90;99.90;;;;;;5057763;28;20646;-78
2021/05/24 05:09:12;;;;;;;2.30;1.90;;;10.00;99.90;;;;;;5052607;28;20218;-78
2021/05/24 05:11:39;;;;;;;4.47;1.55;;;10.10;99.90;;;;;;5055357;28;20286;-78
2021/05/24 05:14:06;;;;;;;1.75;1.65;;;10.30;99.90;;;;;;5055246;28;20210;-77
2021/05/24 05:16:32;;;;;;;2.05;1.60;;;10.30;99.90;;;;;;5060527;28;20251;-79
2021/05/24 05:18:59;;;;;;;2.03;1.92;;;10.40;99.90;;;;;;5062980;28;20226;-79
2021/05/24 05:21:25;;;;;;;3.75;1.95;;;10.50;99.90;;;;;;5054042;28;20701;-79
2021/05/24 05:23:53;;;;;;;2.50;2.17;;;10.60;99.90;;;;;;5037671;28;20238;-78
2021/05/24 05:26:20;;;;;;;2.08;1.50;;;10.70;99.90;;;;;;5039914;28;20330;-79
2021/05/24 05:28:46;;;;;;;2.85;1.73;;;10.80;99.90;;;;;;5060730;28;20214;-80
2021/05/24 05:31:14;;;;;;;1.88;1.77;;;11.00;99.90;;;;;;5060942;28;20210;-78
2021/05/24 05:33:41;;;;;;;2.60;1.98;;;11.20;99.90;;;;;;5060576;28;20210;-78
2021/05/24 05:36:07;;;;;;;2.08;1.58;;;11.20;99.90;;;;;;5060415;28;20191;-78
2021/05/24 05:38:34;;;;;;;3.20;1.40;;;11.50;99.90;;;;;;5060411;28;20199;-78
2021/05/24 05:41:03;;;;;;;1.83;1.45;;;11.60;99.90;;;;;;5044371;28;20222;-78
2021/05/24 05:43:30;;;;;;;2.10;1.90;;;11.50;99.90;;;;;;5040202;28;20662;-78
2021/05/24 05:45:57;;;;;;;1.67;1.58;;;11.60;99.90;;;;;;5039898;28;20245;-77
2021/05/24 05:48:23;;;;;;;2.75;1.50;;;11.70;99.90;;;;;;5041245;28;20662;-79
2021/05/24 05:50:50;;;;;;;4.18;1.85;;;11.70;99.90;;;;;;5043546;28;20276;-80
2021/05/24 05:53:17;;;;;;;2.22;0.95;;;11.70;99.90;;;;;;5046412;28;20598;-79
2021/05/24 05:55:44;;;;;;;1.85;1.65;;;11.70;99.90;;;;;;5045407;28;20671;-79
2021/05/24 05:58:12;;;;;;;2.33;1.40;;;11.80;99.90;;;;;;5039534;28;20190;-80
2021/05/24 06:00:38;;;;;;;1.95;1.60;;;11.90;99.90;;;;;;5042719;28;20283;-79
2021/05/24 06:03:05;;;;;;;4.68;1.90;;;11.90;99.90;;;;;;5037980;28;20211;-79
2021/05/24 06:05:32;;;;;;;3.97;1.35;;;12.00;99.90;;;;;;5041082;28;20247;-80
2021/05/24 06:07:59;;;;;;;8.27;1.45;;;12.10;99.90;;;;;;5039678;28;20247;-78
2021/05/24 06:10:25;;;;;;;1.20;1.10;;;12.30;99.90;;;;;;5048246;28;20219;-79
2021/05/24 06:12:52;;;;;;;3.75;1.40;;;12.50;99.90;;;;;;5061946;28;20226;-80
2021/05/24 06:15:20;;;;;;;2.53;1.50;;;12.70;99.90;;;;;;5057346;28;20278;-78
2021/05/24 06:17:47;;;;;;;1.70;1.30;;;12.60;99.90;;;;;;5060866;28;20191;-79
2021/05/24 06:20:14;;;;;;;1.48;1.08;;;12.50;99.90;;;;;;5061042;28;20240;-81
2021/05/24 06:22:41;;;;;;;1.85;1.23;;;12.60;99.90;;;;;;5063387;28;20206;-79
2021/05/24 06:25:09;;;;;;;1.20;1.13;;;12.60;99.90;;;;;;5063283;28;20206;-79
2021/05/24 06:27:36;;;;;;;1.70;1.45;;;12.80;99.90;;;;;;5065693;28;20215;-80
2021/05/24 06:30:03;;;;;;;4.07;1.63;;;12.90;99.90;;;;;;5046644;28;20217;-80
2021/05/24 06:32:31;;;;;;;2.30;1.40;;;13.10;99.90;;;;;;5068653;28;20234;-80
2021/05/24 06:34:58;;;;;;;1.08;1.08;;;13.20;99.90;;;;;;5068344;28;20207;-80
2021/05/24 06:37:24;;;;;;;1.80;1.25;;;13.40;99.90;;;;;;5064803;28;20588;-80
2021/05/24 06:39:51;;;;;;;3.28;1.83;;;13.60;99.90;;;;;;5065925;28;20218;-82
2021/05/24 06:42:19;;;;;;;1.67;1.42;;;13.80;99.90;;;;;;5064625;28;20203;-81
2021/05/24 06:44:46;;;;;;;4.50;1.40;;;14.00;99.90;;;;;;5064908;28;20202;-80
2021/05/24 06:47:13;;;;;;;1.17;1.08;;;13.70;99.90;;;;;;5064586;28;20230;-79
2021/05/24 06:49:40;;;;;;;1.50;1.08;;;13.80;99.90;;;;;;5062881;28;20301;-79
2021/05/24 06:52:09;;;;;;;2.45;0.90;;;13.80;99.90;;;;;;5060484;28;20199;-79
2021/05/24 06:54:36;;;;;;;2.95;1.10;;;13.90;99.90;;;;;;5060176;28;20256;-79
2021/05/24 06:57:06;;;;;;;1.95;0.88;;;13.80;99.90;;;;;;5047673;28;20205;-81
2021/05/24 06:59:33;;;;;;;2.45;1.88;;;13.70;99.90;;;;;;5035754;28;20212;-79
2021/05/24 07:02:00;;;;;;;2.50;1.15;;;13.90;99.90;;;;;;5040350;28;20208;-79
2021/05/24 07:04:27;;;;;;;1.35;1.05;;;13.90;99.90;;;;;;5039263;28;20678;-79
2021/05/24 07:06:54;;;;;;;2.35;1.20;;;14.10;99.90;;;;;;5020559;28;20269;-77
2021/05/24 07:09:22;;;;;;;4.95;2.00;;;14.20;99.90;;;;;;5037040;28;20223;-79
2021/05/24 07:11:48;;;;;;;3.67;1.40;;;14.30;99.90;;;;;;5037702;28;20630;-81
2021/05/24 07:14:15;;;;;;;2.58;1.30;;;14.60;99.90;;;;;;5036586;28;20200;-79
2021/05/24 07:16:42;;;;;;;1.17;0.90;;;14.50;99.90;;;;;;5037322;28;20711;-78
2021/05/24 07:19:09;;;;;;;1.25;1.05;;;14.50;99.90;;;;;;5038120;28;20223;-81
2021/05/24 07:21:35;;;;;;;2.35;1.20;;;14.50;99.90;;;;;;5035436;28;20242;-79
2021/05/24 07:24:03;;;;;;;1.73;1.10;;;14.70;99.90;;;;;;5037020;28;20264;-79
2021/05/24 07:26:30;;;;;;;0.80;0.80;;;15.10;99.90;;;;;;5040579;28;20220;-79
2021/05/24 07:28:57;;;;;;;4.50;0.88;;;15.00;99.90;;;;;;5041296;28;20275;-79
2021/05/24 07:31:24;;;;;;;1.15;0.95;;;15.10;99.90;;;;;;5040001;28;20207;-79
2021/05/24 07:33:50;;;;;;;1.05;0.85;;;15.20;99.90;;;;;;5039813;28;20215;-79
2021/05/24 07:36:17;;;;;;;1.40;0.98;;;15.30;99.90;;;;;;5038869;28;20192;-79
2021/05/24 07:38:44;;;;;;;2.10;0.90;;;15.40;99.90;;;;;;5040914;28;20292;-79
2021/05/24 07:41:11;;;;;;;0.75;0.75;;;15.40;99.90;;;;;;5039479;28;20200;-79
2021/05/24 07:43:37;;;;;;;1.67;0.82;;;15.50;99.90;;;;;;5039136;28;20215;-79
2021/05/24 07:46:04;;;;;;;3.85;1.27;;;15.50;99.90;;;;;;5040296;28;20204;-79
2021/05/24 07:48:31;;;;;;;0.82;0.80;;;15.80;99.90;;;;;;5041375;28;20576;-79
2021/05/24 07:51:00;;;;;;;1.60;1.20;;;15.90;99.90;;;;;;5041980;28;20303;-80
2021/05/24 07:53:27;;;;;;;2.53;1.42;;;16.20;99.90;;;;;;5039783;28;20583;-79
2021/05/24 07:55:53;;;;;;;2.38;1.08;;;16.40;99.90;;;;;;5041433;28;20196;-80
2021/05/24 07:58:21;;;;;;;1.33;0.80;;;16.60;99.90;;;;;;5057295;28;20223;-79
2021/05/24 08:00:48;;;;;;;1.77;0.95;;;16.50;99.90;;;;;;5036698;28;20216;-80
2021/05/24 08:03:14;;;;;;;2.55;1.02;;;16.50;99.90;;;;;;5034079;28;20196;-78
2021/05/24 08:05:41;;;;;;;3.08;0.98;;;16.60;99.90;;;;;;5037534;28;20200;-77
2021/05/24 08:08:08;;;;;;;1.65;1.00;;;16.60;99.90;;;;;;5037624;28;20266;-78
2021/05/24 08:10:35;;;;;;;2.72;1.33;;;16.60;99.90;;;;;;5043290;28;20242;-80
2021/05/24 08:13:02;;;;;;;1.23;1.10;;;16.60;99.90;;;;;;5052992;28;20211;-78
2021/05/24 08:15:30;;;;;;;1.58;1.10;;;16.70;99.90;;;;;;5056564;28;20192;-78
2021/05/24 08:17:59;;;;;;;2.47;1.00;;;17.00;99.90;;;;;;5057745;28;20203;-78
2021/05/24 08:20:25;;;;;;;0.63;0.63;;;17.00;99.90;;;;;;5058243;28;20279;-78
2021/05/24 08:22:52;;;;;;;2.53;0.98;;;17.00;99.90;;;;;;5038177;28;20290;-78
2021/05/24 08:25:19;;;;;;;2.30;0.68;;;17.10;99.90;;;;;;5038318;28;20291;-79
2021/05/24 08:27:46;;;;;;;1.08;0.63;;;17.40;99.90;;;;;;5037300;28;20220;-78
2021/05/24 08:30:14;;;;;;;8.05;1.08;;;17.30;99.90;;;;;;5035949;28;20728;-78
2021/05/24 08:32:42;;;;;;;2.90;1.13;;;17.60;99.90;;;;;;5033670;28;20228;-77
2021/05/24 08:35:10;;;;;;;1.13;0.85;;;17.90;99.90;;;;;;5039131;28;20275;-78
2021/05/24 08:37:37;;;;;;;1.63;0.60;;;17.80;99.90;;;;;;5036491;28;20319;-77
2021/05/24 08:40:06;;;;;;;1.02;0.60;;;17.80;99.90;;;;;;5037874;28;20234;-78
2021/05/24 08:42:36;;;;;;;0.77;0.75;;;17.90;99.90;;;;;;5049018;28;20196;-77
2021/05/24 08:45:04;;;;;;;1.92;0.85;;;17.90;99.90;;;;;;5057908;28;20195;-77
2021/05/24 08:47:31;;;;;;;4.65;0.80;;;17.90;99.90;;;;;;5055838;28;20219;-78
2021/05/24 08:49:59;;;;;;;2.05;1.00;;;18.10;99.90;;;;;;5052237;28;20222;-78
2021/05/24 08:52:28;;;;;;;4.25;1.17;;;18.20;99.90;;;;;;5056529;28;20290;-78
2021/05/24 08:54:55;;;;;;;1.52;1.00;;;18.20;99.90;;;;;;5055334;28;20195;-77
2021/05/24 08:57:22;;;;;;;5.38;2.05;;;18.10;99.90;;;;;;5051839;28;20219;-78
2021/05/24 08:59:49;;;;;;;3.25;0.70;;;18.50;99.90;;;;;;5052828;28;20211;-77
2021/05/24 09:02:15;;;;;;;0.90;0.60;;;18.50;99.90;;;;;;5055133;28;20349;-77
2021/05/24 09:04:44;;;;;;;0.88;0.85;;;18.40;99.90;;;;;;5045670;28;20271;-77
2021/05/24 09:07:12;;;;;;;0.63;0.63;;;18.50;99.90;;;;;;5037069;28;20231;-78
2021/05/24 09:09:39;;;;;;;1.92;0.70;;;18.80;99.90;;;;;;5044851;28;20223;-77
2021/05/24 09:12:17;;;;;;;1.08;0.60;;;18.80;99.90;;;;;;5037609;28;20187;-77
2021/05/24 09:14:54;;;;;;;2.08;0.80;;;19.00;99.90;;;;;;5037706;28;20199;-77
2021/05/24 09:17:21;;;;;;;1.88;0.75;;;18.90;99.90;;;;;;5037267;28;20199;-77
2021/05/24 09:19:48;;;;;;;4.18;1.00;;;19.00;99.90;;;;;;5036281;28;20235;-76
2021/05/24 09:22:16;;;;;;;1.13;0.73;;;19.10;99.90;;;;;;5036907;28;20198;-77
2021/05/24 09:24:44;;;;;;;2.05;1.88;;;18.60;99.90;;;;;;5037644;28;20574;-76
2021/05/24 09:27:24;;;;;;;1.15;0.60;;;18.90;99.90;;;;;;5036646;28;20218;-77
2021/05/24 09:29:52;;;;;;;2.70;0.65;;;19.30;99.90;;;;;;5036248;28;20215;-78
2021/05/24 09:32:20;;;;;;;0.68;0.60;;;19.50;99.90;;;;;;5038633;28;20196;-79
2021/05/24 09:34:50;;;;;;;0.88;0.82;;;19.70;99.90;;;;;;5038751;28;20196;-78
2021/05/24 09:37:20;;;;;;;0.95;0.77;;;19.90;99.90;;;;;;5037601;28;20199;-77
2021/05/24 09:39:47;;;;;;;0.98;0.60;;;20.00;99.90;;;;;;5039849;28;20212;-78
2021/05/24 09:42:16;;;;;;;0.70;0.52;;;19.80;99.90;;;;;;5043685;28;20199;-79
2021/05/24 09:44:44;;;;;;;1.15;0.43;;;19.70;99.90;;;;;;5046085;28;20200;-79
2021/05/24 09:47:11;;;;;;;2.17;0.60;;;19.80;99.90;;;;;;5046400;28;20319;-79
2021/05/24 09:49:38;;;;;;;2.67;0.65;;;20.10;99.90;;;;;;5046355;28;20302;-81
2021/05/24 09:52:06;;;;;;;1.67;1.25;;;20.00;99.90;;;;;;5052301;28;20184;-80
2021/05/24 09:54:36;;;;;;;3.28;0.70;;;20.10;99.90;;;;;;5053473;28;20208;-80
2021/05/24 09:57:05;;;;;;;1.55;0.75;;;19.80;99.90;;;;;;5055430;28;20222;-82
2021/05/24 09:59:35;;;;;;;1.33;0.65;;;19.70;99.90;;;;;;5050564;28;20216;-81
2021/05/24 10:02:05;;;;;;;4.07;0.77;;;20.00;99.90;;;;;;5048737;28;20207;-81
2021/05/24 10:04:34;;;;;;;3.40;0.77;;;19.90;99.90;;;;;;5050030;28;20197;-79
2021/05/24 10:07:02;;;;;;;3.60;0.80;;;20.20;99.90;;;;;;5049447;28;20690;-79
2021/05/24 10:09:32;;;;;;;0.50;0.50;;;20.00;99.90;;;;;;5046693;28;20224;-80
2021/05/24 10:12:02;;;;;;;2.38;0.85;;;19.80;99.90;;;;;;5054875;28;20207;-79
2021/05/24 10:14:30;;;;;;;1.42;0.65;;;19.60;99.90;;;;;;5050747;28;20204;-78
2021/05/24 10:17:02;;;;;;;2.40;0.70;;;19.60;99.90;;;;;;5044388;28;20605;-80
2021/05/24 10:19:29;;;;;;;2.70;0.82;;;19.90;99.90;;;;;;5050632;28;20273;-78
2021/05/24 10:21:56;;;;;;;1.10;0.70;;;20.10;99.90;;;;;;5048524;28;20230;-79
2021/05/24 10:24:24;;;;;;;0.50;0.50;;;20.00;99.90;;;;;;5056425;28;20266;-80
2021/05/24 10:26:54;;;;;;;0.68;0.68;;;20.10;99.90;;;;;;5067560;28;20288;-79
2021/05/24 10:29:22;;;;;;;2.20;0.50;;;20.60;99.90;;;;;;5056994;28;20235;-79
2021/05/24 10:31:50;;;;;;;6.03;0.77;;;20.70;99.90;;;;;;5045582;28;20208;-80
2021/05/24 10:34:18;;;;;;;0.95;0.60;;;20.80;99.90;;;;;;5035384;28;20199;-79
2021/05/24 10:36:47;;;;;;;0.95;0.70;;;21.20;99.90;;;;;;5086202;28;20282;-80
2021/05/24 10:39:19;;;;;;;1.20;0.75;;;20.90;99.90;;;;;;5069112;28;20215;-79
2021/05/24 10:41:49;;;;;;;2.13;0.65;;;20.30;99.90;;;;;;5067932;28;20241;-79
2021/05/24 10:44:18;;;;;;;4.18;0.85;;;20.20;99.90;;;;;;5069112;28;20206;-80
2021/05/24 10:46:47;;;;;;;0.98;0.73;;;20.50;99.90;;;;;;5066784;28;20211;-80
2021/05/24 10:49:22;;;;;;;2.58;0.73;;;20.50;99.90;;;;;;5077588;28;20620;-79
2021/05/24 10:52:05;;;;;;;0.93;0.82;;;20.70;99.90;;;;;;5067116;28;20187;-78
2021/05/24 10:54:42;;;;;;;0.88;0.70;;;21.20;99.90;;;;;;5066737;28;20258;-80
2021/05/24 10:57:20;;;;;;;1.42;0.65;;;21.60;99.90;;;;;;5043912;28;20208;-79
2021/05/24 10:59:54;;;;;;;2.20;1.00;;;21.00;99.90;;;;;;5042094;28;20279;-82
2021/05/24 11:02:38;;;;;;;1.13;0.77;;;21.00;99.90;;;;;;5044624;28;20693;-80
2021/05/24 11:05:21;;;;;;;3.28;0.70;;;20.80;99.90;;;;;;5045433;28;20192;-80
2021/05/24 11:07:50;;;;;;;1.70;0.60;;;20.90;99.90;;;;;;5038775;28;20224;-85
2021/05/24 11:10:26;;;;;;;0.90;0.47;;;21.40;99.90;;;;;;5044262;28;20220;-80
2021/05/24 11:12:54;;;;;;;2.40;0.50;;;21.30;99.90;;;;;;5047557;28;20200;-81
2021/05/24 11:15:23;;;;;;;0.60;0.50;;;21.40;99.90;;;;;;5046601;28;20595;-82
2021/05/24 11:18:13;;;;;;;0.73;0.40;;;21.40;99.90;;;;;;5044443;28;20195;-80
2021/05/24 11:20:45;;;;;;;1.00;0.50;;;21.40;99.90;;;;;;5045785;28;20713;-81
2021/05/24 11:23:22;;;;;;;0.55;0.55;;;22.20;99.90;;;;;;5062934;28;20199;-82
2021/05/24 11:25:54;;;;;;;1.75;0.40;;;22.10;99.90;;;;;;5064626;28;20198;-82
2021/05/24 11:28:22;;;;;;;1.95;0.60;;;21.60;99.90;;;;;;5061678;28;20223;-81
2021/05/24 11:31:12;;;;;;;1.65;0.65;;;21.30;99.90;;;;;;5065745;28;20218;-79
2021/05/24 11:33:51;;;;;;;2.00;0.63;;;21.70;99.90;;;;;;5062766;28;20521;-78
2021/05/24 11:36:20;;;;;;;1.33;0.65;;;21.90;99.90;;;;;;5065303;28;20207;-80
2021/05/24 11:39:05;;;;;;;2.58;0.57;;;22.10;99.90;;;;;;5075981;28;20199;-82
2021/05/24 11:41:33;;;;;;;5.13;0.70;;;21.40;99.90;;;;;;5052533;28;20230;-84
2021/05/24 11:44:02;;;;;;;1.17;0.80;;;21.40;99.90;;;;;;5052639;28;20210;-83
2021/05/24 11:46:43;;;;;;;2.55;0.98;;;22.00;99.90;;;;;;5071191;28;20263;-83
2021/05/24 11:49:11;;;;;;;2.65;1.95;;;22.10;99.90;;;;;;5068440;28;20298;-82
2021/05/24 11:51:39;;;;;;;1.25;0.50;;;21.90;99.90;;;;;;5068558;28;20203;-83
2021/05/24 11:54:07;;;;;;;0.47;0.40;;;22.00;99.90;;;;;;5067639;28;20198;-83
2021/05/24 11:56:41;;;;;;;1.58;0.50;;;21.90;99.90;;;;;;5068263;28;20222;-83
2021/05/24 11:59:10;;;;;;;1.13;0.70;;;22.10;99.90;;;;;;5057612;28;20509;-82
2021/05/24 12:01:38;;;;;;;1.27;0.52;;;22.60;99.90;;;;;;5047118;28;20195;-84
2021/05/24 12:04:10;;;;;;;0.82;0.40;;;22.10;99.90;;;;;;5054428;28;20201;-83
2021/05/24 12:06:46;;;;;;;2.28;0.60;;;21.60;99.90;;;;;;5059280;28;20191;-85
2021/05/24 12:09:17;;;;;;;5.00;0.65;;;21.50;99.90;;;;;;5060442;28;20303;-84
2021/05/24 12:11:54;;;;;;;1.13;0.70;;;21.50;99.90;;;;;;5063565;28;20203;-83
2021/05/24 12:14:22;;;;;;;1.08;0.60;;;21.50;99.90;;;;;;5048837;28;20198;-84
2021/05/24 12:16:48;;;;;;;1.23;0.60;;;21.70;99.90;;;;;;5060484;28;20267;-82
2021/05/24 12:19:27;;;;;;;0.70;0.40;;;22.00;99.90;;;;;;5050510;28;20224;-83
2021/05/24 12:21:57;;;;;;;1.27;0.55;;;22.00;99.90;;;;;;5064539;28;20267;-81
2021/05/24 12:24:24;;;;;;;2.13;0.90;;;22.00;99.90;;;;;;5054325;28;20263;-81
2021/05/24 12:26:53;;;;;;;1.70;0.70;;;22.10;99.90;;;;;;5053722;28;20208;-82
2021/05/24 12:29:26;;;;;;;1.77;0.75;;;22.10;99.90;;;;;;5068967;28;20223;-80
2021/05/24 12:31:57;;;;;;;1.30;0.50;;;21.10;99.90;;;;;;5047381;28;20204;-81
2021/05/24 12:34:38;;;;;;;1.35;0.60;;;21.40;99.90;;;;;;5056091;28;20199;-84
2021/05/24 12:37:08;;;;;;;5.93;1.05;;;22.20;99.90;;;;;;5041277;28;20180;-82
2021/05/24 12:39:38;;;;;;;1.25;0.60;;;23.10;99.90;;;;;;5052104;28;20234;-79
2021/05/24 12:42:07;;;;;;;2.17;0.60;;;23.40;99.90;;;;;;5059645;28;20199;-78
2021/05/24 12:44:36;;;;;;;2.90;0.90;;;23.10;99.90;;;;;;5048330;28;20206;-79
2021/05/24 12:47:14;;;;;;;1.75;0.50;;;23.60;99.90;;;;;;5039062;28;20215;-78
2021/05/24 12:49:44;;;;;;;1.05;0.50;;;23.20;99.90;;;;;;5050878;28;20228;-78
2021/05/24 12:52:11;;;;;;;0.55;0.50;;;23.20;99.90;;;;;;5065198;28;20198;-78
2021/05/24 12:54:46;;;;;;;0.98;0.73;;;23.80;99.90;;;;;;5054848;28;20222;-78
2021/05/24 12:57:15;;;;;;;3.40;0.70;;;24.30;99.90;;;;;;5047270;28;20215;-78